createdAt,value
2018-07-13T00:02:20.815Z,9.57
2018-07-13T00:04:49.205Z,9.20
2018-07-13T00:07:18.024Z,8.40
2018-07-13T00:09:46.838Z,8.53
2018-07-13T00:12:15.660Z,8.43
2018-07-13T00:15:15.548Z,10.00
2018-07-13T00:17:44.336Z,8.50
2018-07-13T00:20:13.150Z,8.67
2018-07-13T00:22:42.394Z,8.13
2018-07-13T00:25:11.231Z,8.27
2018-07-13T00:27:40.027Z,8.37
2018-07-13T00:30:09.078Z,8.23
2018-07-13T00:32:37.867Z,8.43
2018-07-13T00:35:06.655Z,7.90
2018-07-13T00:37:35.698Z,8.37
2018-07-13T00:40:04.598Z,8.47
2018-07-13T00:42:33.407Z,7.77
2018-07-13T00:45:02.188Z,8.00
2018-07-13T00:47:30.965Z,8.37
2018-07-13T00:49:59.744Z,8.83
2018-07-13T00:52:28.638Z,8.87
2018-07-13T00:54:57.414Z,9.50
2018-07-13T00:57:26.207Z,8.10
2018-07-13T00:59:55.352Z,8.93
2018-07-13T01:02:24.156Z,8.77
2018-07-13T01:04:52.954Z,8.07
2018-07-13T01:07:21.753Z,8.40
2018-07-13T01:09:50.534Z,8.33
2018-07-13T01:12:19.312Z,8.20
2018-07-13T01:14:48.135Z,8.90
2018-07-13T01:17:17.971Z,8.23
2018-07-13T01:19:46.763Z,8.50
2018-07-13T01:22:15.731Z,7.77
2018-07-13T01:24:44.617Z,8.47
2018-07-13T01:27:13.391Z,8.90
2018-07-13T01:29:42.414Z,8.90
2018-07-13T01:32:11.178Z,7.80
2018-07-13T01:34:39.962Z,7.70
2018-07-13T01:37:08.793Z,8.00
2018-07-13T01:39:37.578Z,8.73
2018-07-13T01:42:06.442Z,8.60
2018-07-13T01:44:35.597Z,7.47
2018-07-13T01:47:04.369Z,8.73
2018-07-13T01:49:33.177Z,8.80
2018-07-13T01:52:01.594Z,9.17
2018-07-13T01:54:30.381Z,8.83
2018-07-13T01:56:59.170Z,8.90
2018-07-13T01:59:28.082Z,8.60
2018-07-13T02:01:56.873Z,8.30
2018-07-13T02:04:25.656Z,8.80
2018-07-13T02:06:54.507Z,8.30
2018-07-13T02:09:23.307Z,9.40
2018-07-13T02:11:52.572Z,9.03
2018-07-13T02:14:21.788Z,9.17
2018-07-13T02:16:50.570Z,8.80
2018-07-13T02:19:19.319Z,7.93
2018-07-13T02:21:48.405Z,9.20
2018-07-13T02:24:17.178Z,9.37
2018-07-13T02:26:45.964Z,9.50
2018-07-13T02:29:14.761Z,8.30
2018-07-13T02:31:43.547Z,8.90
2018-07-13T02:34:12.382Z,8.33
2018-07-13T02:36:41.342Z,8.97
2018-07-13T02:39:11.288Z,8.70
2018-07-13T02:41:40.441Z,9.40
2018-07-13T02:44:09.330Z,9.33
2018-07-13T02:46:38.090Z,9.90
2018-07-13T02:49:06.479Z,9.93
2018-07-13T02:51:35.282Z,9.33
2018-07-13T02:54:04.111Z,9.37
2018-07-13T02:56:32.904Z,9.00
2018-07-13T02:59:01.703Z,9.40
2018-07-13T03:01:30.092Z,10.10
2018-07-13T03:03:58.900Z,9.63
2018-07-13T03:06:28.156Z,9.30
2018-07-13T03:08:56.932Z,9.47
2018-07-13T03:11:25.727Z,9.70
2018-07-13T03:13:54.666Z,9.60
2018-07-13T03:16:23.475Z,9.80
2018-07-13T03:18:52.424Z,9.50
2018-07-13T03:21:21.239Z,9.63
2018-07-13T03:23:49.987Z,9.70
2018-07-13T03:26:18.793Z,9.67
2018-07-13T03:28:47.936Z,8.90
2018-07-13T03:31:16.785Z,9.97
2018-07-13T03:33:45.628Z,9.57
2018-07-13T03:36:14.454Z,9.50
2018-07-13T03:38:43.449Z,9.93
2018-07-13T03:41:12.483Z,9.47
2018-07-13T03:43:40.911Z,9.40
2018-07-13T03:46:09.446Z,9.43
2018-07-13T03:48:38.488Z,8.70
2018-07-13T03:51:07.164Z,9.33
2018-07-13T03:53:36.007Z,9.33
2018-07-13T03:56:05.137Z,10.20
2018-07-13T03:58:33.981Z,9.83
2018-07-13T04:01:02.787Z,9.80
2018-07-13T04:03:31.176Z,9.97
2018-07-13T04:05:59.793Z,9.80
2018-07-13T04:08:28.630Z,9.70
2018-07-13T04:10:57.371Z,10.07
2018-07-13T04:13:26.622Z,10.50
2018-07-13T04:15:55.499Z,9.80
2018-07-13T04:18:25.101Z,10.60
2018-07-13T04:20:54.523Z,9.93
2018-07-13T04:23:24.325Z,10.27
2018-07-13T04:25:53.413Z,10.70
2018-07-13T04:28:22.833Z,12.20
2018-07-13T04:30:51.793Z,11.40
2018-07-13T04:33:20.617Z,12.70
2018-07-13T04:35:49.658Z,13.70
2018-07-13T04:38:18.438Z,12.50
2018-07-13T04:40:47.284Z,12.67
2018-07-13T04:43:16.084Z,11.97
2018-07-13T04:45:44.993Z,13.50
2018-07-13T04:48:13.454Z,13.87
2018-07-13T04:50:42.546Z,12.13
2018-07-13T04:53:10.982Z,12.50
2018-07-13T04:55:39.882Z,12.00
2018-07-13T04:58:08.906Z,11.53
2018-07-13T05:00:37.893Z,11.47
2018-07-13T05:03:06.826Z,12.07
2018-07-13T05:05:35.724Z,12.77
2018-07-13T05:08:04.638Z,13.10
2018-07-13T05:10:33.444Z,13.53
2018-07-13T05:13:02.288Z,14.40
2018-07-13T05:15:31.072Z,14.27
2018-07-13T05:17:59.914Z,13.80
2018-07-13T05:20:28.496Z,14.00
2018-07-13T05:22:57.297Z,14.00
2018-07-13T05:25:26.199Z,14.27
2018-07-13T05:27:55.119Z,14.73
2018-07-13T05:30:24.154Z,14.80
2018-07-13T05:32:53.062Z,15.07
2018-07-13T05:35:22.524Z,14.73
2018-07-13T05:37:51.408Z,15.03
2018-07-13T05:40:20.330Z,14.80
2018-07-13T05:42:49.321Z,15.90
2018-07-13T05:45:17.766Z,16.80
2018-07-13T05:47:46.194Z,17.47
2018-07-13T05:50:15.363Z,17.30
2018-07-13T05:52:44.306Z,18.10
2018-07-13T05:55:13.289Z,19.03
2018-07-13T05:57:42.249Z,18.50
2018-07-13T06:00:11.197Z,18.83
2018-07-13T06:02:40.108Z,18.60
2018-07-13T06:05:09.217Z,19.07
2018-07-13T06:07:38.298Z,18.93
2018-07-13T06:10:06.703Z,20.40
2018-07-13T06:12:35.779Z,21.83
2018-07-13T06:15:04.843Z,19.93
2018-07-13T06:17:33.561Z,20.77
2018-07-13T06:20:02.015Z,22.47
2018-07-13T06:22:30.858Z,20.80
2018-07-13T06:24:59.774Z,21.70
2018-07-13T06:27:28.296Z,24.00
2018-07-13T06:29:57.168Z,22.37
2018-07-13T06:32:26.248Z,24.17
2018-07-13T06:34:55.099Z,25.67
2018-07-13T06:37:23.988Z,23.20
2018-07-13T06:39:52.904Z,24.30
2018-07-13T06:42:21.841Z,23.80
2018-07-13T06:44:50.749Z,22.70
2018-07-13T06:47:19.592Z,27.93
2018-07-13T06:49:48.665Z,23.03
2018-07-13T06:52:17.513Z,25.67
2018-07-13T06:54:46.351Z,23.67
2018-07-13T06:58:24.639Z,23.97
2018-07-13T07:00:59.269Z,24.53
2018-07-13T07:03:29.505Z,35.77
2018-07-13T07:06:04.572Z,24.90
2018-07-13T07:08:33.638Z,27.73
2018-07-13T07:11:02.587Z,25.03
2018-07-13T07:13:34.906Z,27.80
2018-07-13T07:16:03.793Z,23.33
2018-07-13T07:18:32.597Z,24.03
2018-07-13T07:21:01.818Z,25.03
2018-07-13T07:23:31.181Z,24.10
2018-07-13T07:26:01.159Z,23.37
2018-07-13T07:28:30.598Z,25.87
2018-07-13T07:31:00.457Z,29.60
2018-07-13T07:33:29.281Z,22.47
2018-07-13T07:35:58.121Z,22.47
2018-07-13T07:38:26.910Z,23.67
2018-07-13T07:40:55.807Z,23.40
2018-07-13T07:43:24.739Z,26.70
2018-07-13T07:45:53.514Z,21.90
2018-07-13T07:48:22.291Z,23.80
2018-07-13T07:50:51.234Z,25.20
2018-07-13T07:53:20.104Z,22.40
2018-07-13T07:55:48.939Z,22.00
2018-07-13T07:58:17.819Z,24.40
2018-07-13T08:00:46.222Z,22.53
2018-07-13T08:03:15.017Z,20.60
2018-07-13T08:05:43.833Z,21.90
2018-07-13T08:08:12.647Z,19.70
2018-07-13T08:10:41.445Z,18.47
2018-07-13T08:13:10.646Z,17.70
2018-07-13T08:15:39.465Z,17.50
2018-07-13T08:18:07.918Z,16.90
2018-07-13T08:20:36.547Z,18.83
2018-07-13T08:23:06.850Z,15.53
2018-07-13T08:25:35.907Z,16.00
2018-07-13T08:28:05.073Z,15.00
2018-07-13T08:30:36.349Z,13.80
2018-07-13T08:33:05.152Z,15.33
2018-07-13T08:35:34.211Z,14.97
2018-07-13T08:38:03.112Z,15.97
2018-07-13T08:40:32.012Z,17.93
2018-07-13T08:43:01.033Z,13.87
2018-07-13T08:45:29.882Z,16.10
2018-07-13T08:47:58.682Z,14.23
2018-07-13T08:50:28.093Z,13.20
2018-07-13T08:52:57.499Z,13.80
2018-07-13T08:55:26.433Z,15.20
2018-07-13T08:57:55.483Z,14.20
2018-07-13T09:00:24.399Z,12.63
2018-07-13T09:02:53.240Z,13.23
2018-07-13T09:05:22.308Z,12.50
2018-07-13T09:07:51.179Z,13.17
2018-07-13T09:10:20.035Z,14.30
2018-07-13T09:12:48.889Z,12.60
2018-07-13T09:15:17.803Z,12.47
2018-07-13T09:17:46.618Z,13.10
2018-07-13T09:20:15.856Z,11.47
2018-07-13T09:22:44.691Z,11.87
2018-07-13T09:25:13.520Z,13.30
2018-07-13T09:27:42.792Z,12.63
2018-07-13T09:30:12.441Z,11.10
2018-07-13T09:32:41.488Z,14.30
2018-07-13T09:35:10.358Z,12.80
2018-07-13T09:37:39.264Z,12.30
2018-07-13T09:40:08.187Z,12.33
2018-07-13T09:42:37.168Z,12.10
2018-07-13T09:45:06.036Z,12.33
2018-07-13T09:47:35.658Z,10.90
2018-07-13T09:50:04.682Z,10.23
2018-07-13T09:52:35.875Z,10.33
2018-07-13T09:55:04.833Z,11.20
2018-07-13T09:57:33.649Z,10.67
2018-07-13T10:00:02.444Z,10.07
2018-07-13T10:02:31.277Z,9.90
2018-07-13T10:05:00.170Z,10.53
2018-07-13T10:07:29.051Z,11.23
2018-07-13T10:09:57.913Z,10.70
2018-07-13T10:12:26.945Z,11.10
2018-07-13T10:14:55.830Z,12.03
2018-07-13T10:17:24.723Z,10.30
2018-07-13T10:19:53.813Z,10.93
2018-07-13T10:22:25.456Z,10.80
2018-07-13T10:24:54.808Z,11.27
2018-07-13T10:27:23.874Z,12.47
2018-07-13T10:29:54.700Z,12.33
2018-07-13T10:32:24.186Z,11.80
2018-07-13T10:34:53.781Z,11.97
2018-07-13T10:37:22.950Z,11.80
2018-07-13T10:39:52.190Z,11.70
2018-07-13T10:42:20.984Z,11.83
2018-07-13T10:44:49.791Z,11.80
2018-07-13T10:47:18.652Z,12.10
2018-07-13T10:49:47.028Z,12.90
2018-07-13T10:52:15.859Z,13.80
2018-07-13T10:54:44.678Z,13.87
2018-07-13T10:57:13.449Z,14.20
2018-07-13T10:59:42.221Z,13.10
2018-07-13T11:02:11.121Z,13.43
2018-07-13T11:04:39.493Z,12.37
2018-07-13T11:07:08.289Z,12.97
2018-07-13T11:09:37.100Z,14.20
2018-07-13T11:12:05.478Z,12.77
2018-07-13T11:14:33.875Z,12.87
2018-07-13T11:17:02.269Z,12.23
2018-07-13T11:19:31.071Z,12.40
2018-07-13T11:21:59.943Z,14.60
2018-07-13T11:24:28.780Z,10.90
2018-07-13T11:26:57.187Z,11.10
2018-07-13T11:29:25.565Z,13.33
2018-07-13T11:31:54.564Z,12.00
2018-07-13T11:34:23.347Z,12.83
2018-07-13T11:36:52.203Z,13.30
2018-07-13T11:39:21.081Z,13.43
2018-07-13T11:41:49.935Z,14.30
2018-07-13T11:44:18.806Z,14.53
2018-07-13T11:46:47.585Z,13.60
2018-07-13T11:49:16.386Z,11.03
2018-07-13T11:51:45.259Z,8.70
2018-07-13T11:54:13.835Z,7.70
2018-07-13T11:56:42.633Z,7.63
2018-07-13T11:59:11.407Z,8.87
2018-07-13T12:01:40.347Z,7.03
2018-07-13T12:04:09.117Z,7.80
2018-07-13T12:06:37.910Z,9.20
2018-07-13T12:09:10.287Z,11.30
2018-07-13T12:11:39.069Z,12.27
2018-07-13T12:14:07.886Z,14.30
2018-07-13T12:16:36.715Z,16.13
2018-07-13T12:19:05.576Z,15.00
2018-07-13T12:21:33.951Z,14.23
2018-07-13T12:24:02.789Z,14.20
2018-07-13T12:26:31.597Z,13.50
2018-07-13T12:29:00.418Z,13.93
2018-07-13T12:31:29.240Z,12.13
2018-07-13T12:33:58.133Z,13.37
2018-07-13T12:36:27.177Z,12.43
2018-07-13T12:38:56.401Z,13.00
2018-07-13T12:41:25.187Z,12.23
2018-07-13T12:43:53.969Z,12.73
2018-07-13T12:46:22.756Z,12.50
2018-07-13T12:48:51.587Z,13.00
2018-07-13T12:51:20.363Z,13.93
2018-07-13T12:53:49.199Z,13.37
2018-07-13T12:56:18.106Z,12.70
2018-07-13T12:58:46.879Z,13.63
2018-07-13T13:01:15.873Z,13.50
2018-07-13T13:03:44.764Z,13.70
2018-07-13T13:06:13.088Z,13.10
2018-07-13T13:08:42.077Z,13.13
2018-07-13T13:11:10.939Z,13.17
2018-07-13T13:13:39.718Z,13.97
2018-07-13T13:16:08.907Z,12.47
2018-07-13T13:18:37.307Z,12.40
2018-07-13T13:21:06.129Z,11.50
2018-07-13T13:23:35.056Z,11.60
2018-07-13T13:26:03.437Z,13.00
2018-07-13T13:28:32.317Z,13.23
2018-07-13T13:31:01.256Z,12.80
2018-07-13T13:33:30.049Z,13.67
2018-07-13T13:35:58.866Z,13.57
2018-07-13T13:38:28.132Z,12.50
2018-07-13T13:40:56.556Z,13.13
2018-07-13T13:43:25.379Z,13.20
2018-07-13T13:45:54.219Z,14.00
2018-07-13T13:48:23.057Z,13.50
2018-07-13T13:50:51.829Z,13.67
2018-07-13T13:53:20.663Z,14.57
2018-07-13T13:55:49.457Z,14.00
2018-07-13T13:58:18.396Z,13.67
2018-07-13T14:00:47.405Z,13.40
2018-07-13T14:03:16.272Z,14.90
2018-07-13T14:05:45.685Z,14.17
2018-07-13T14:08:14.680Z,13.90
2018-07-13T14:10:43.530Z,15.20
2018-07-13T14:13:12.310Z,16.07
2018-07-13T14:15:41.127Z,20.50
2018-07-13T14:18:10.373Z,21.27
2018-07-13T14:20:39.224Z,21.87
2018-07-13T14:23:08.297Z,22.07
2018-07-13T14:25:37.082Z,20.83
2018-07-13T14:28:05.903Z,21.63
2018-07-13T14:30:35.030Z,23.27
2018-07-13T14:33:03.814Z,22.93
2018-07-13T14:35:32.629Z,22.53
2018-07-13T14:38:01.633Z,22.80
2018-07-13T14:40:30.419Z,22.87
2018-07-13T14:42:59.385Z,21.60
2018-07-13T14:45:28.217Z,21.50
2018-07-13T14:47:57.066Z,22.90
2018-07-13T14:50:25.872Z,22.40
2018-07-13T14:52:54.997Z,22.80
2018-07-13T14:55:55.378Z,23.00
2018-07-13T14:58:25.172Z,17.90
2018-07-13T15:00:54.815Z,18.87
2018-07-13T15:03:23.525Z,18.40
2018-07-13T15:05:53.051Z,21.40
2018-07-13T15:08:23.414Z,18.87
2018-07-13T15:10:52.788Z,17.60
2018-07-13T15:13:21.918Z,17.47
2018-07-13T15:15:51.695Z,18.80
2018-07-13T15:18:21.376Z,17.37
2018-07-13T15:20:50.872Z,16.73
2018-07-13T15:23:20.713Z,16.50
2018-07-13T15:25:50.211Z,16.03
2018-07-13T15:28:19.116Z,15.60
2018-07-13T15:30:49.245Z,16.90
2018-07-13T15:33:18.274Z,16.23
2018-07-13T15:35:47.475Z,15.50
2018-07-13T15:38:16.324Z,13.70
2018-07-13T15:40:46.563Z,13.00
2018-07-13T15:43:16.040Z,13.07
2018-07-13T15:45:45.671Z,13.30
2018-07-13T15:48:17.152Z,15.50
2018-07-13T15:50:46.702Z,14.17
2018-07-13T15:53:16.271Z,16.00
2018-07-13T15:55:50.619Z,17.53
2018-07-13T15:58:19.621Z,16.90
2018-07-13T16:00:48.841Z,18.07
2018-07-13T16:03:19.523Z,18.40
2018-07-13T16:05:50.098Z,19.37
2018-07-13T16:08:18.961Z,17.80
2018-07-13T16:10:48.203Z,17.70
2018-07-13T16:13:18.730Z,17.60
2018-07-13T16:15:48.226Z,17.67
2018-07-13T16:18:17.829Z,18.70
2018-07-13T16:20:47.705Z,19.20
2018-07-13T16:23:17.216Z,19.50
2018-07-13T16:25:46.129Z,18.70
2018-07-13T16:28:16.266Z,18.80
2018-07-13T16:30:46.406Z,17.57
2018-07-13T16:33:15.771Z,18.27
2018-07-13T16:35:47.027Z,20.23
2018-07-13T16:38:16.457Z,20.77
2018-07-13T16:40:45.961Z,19.60
2018-07-13T16:43:15.238Z,21.23
2018-07-13T16:45:45.412Z,25.90
2018-07-13T16:48:16.694Z,22.80
2018-07-13T16:50:46.597Z,22.30
2018-07-13T16:53:16.877Z,21.60
2018-07-13T16:55:45.949Z,20.60
2018-07-13T16:58:14.736Z,20.70
2018-07-13T17:00:43.512Z,20.27
2018-07-13T17:03:11.970Z,19.20
2018-07-13T17:05:40.864Z,22.20
2018-07-13T17:08:09.661Z,20.70
2018-07-13T17:10:38.482Z,20.70
2018-07-13T17:13:06.845Z,19.93
2018-07-13T17:15:35.653Z,19.07
2018-07-13T17:18:04.493Z,32.37
2018-07-13T17:20:33.486Z,23.60
2018-07-13T17:23:02.174Z,21.30
2018-07-13T17:25:31.167Z,19.50
2018-07-13T17:28:00.072Z,20.77
2018-07-13T17:30:28.926Z,25.70
2018-07-13T17:32:57.756Z,23.33
2018-07-13T17:35:26.585Z,23.67
2018-07-13T17:37:55.402Z,21.53
2018-07-13T17:40:23.942Z,21.47
2018-07-13T17:43:23.622Z,21.37
2018-07-13T17:45:52.844Z,26.10
2018-07-13T17:48:21.642Z,22.57
2018-07-13T17:50:50.439Z,25.30
2018-07-13T17:53:19.562Z,30.70
2018-07-13T17:55:48.389Z,24.13
2018-07-13T17:58:17.232Z,25.20
2018-07-13T18:00:46.545Z,25.63
2018-07-13T18:03:15.318Z,22.77
2018-07-13T18:05:44.138Z,24.93
2018-07-13T18:08:13.034Z,21.50
2018-07-13T18:10:41.921Z,22.10
2018-07-13T18:13:10.703Z,23.77
2018-07-13T18:15:39.855Z,41.43
2018-07-13T18:18:08.667Z,29.00
2018-07-13T18:20:37.537Z,22.40
2018-07-13T18:23:06.525Z,27.67
2018-07-13T18:25:35.331Z,27.23
2018-07-13T18:28:04.277Z,22.90
2018-07-13T18:30:33.110Z,23.77
2018-07-13T18:33:01.495Z,27.23
2018-07-13T18:35:30.291Z,21.60
2018-07-13T18:37:59.345Z,21.20
2018-07-13T18:40:28.271Z,21.20
2018-07-13T18:42:57.199Z,20.70
2018-07-13T18:45:26.203Z,20.07
2018-07-13T18:47:55.025Z,21.50
2018-07-13T18:50:23.822Z,21.17
2018-07-13T18:52:52.630Z,22.43
2018-07-13T18:55:21.097Z,24.33
2018-07-13T18:57:49.910Z,27.50
2018-07-13T19:00:18.747Z,34.67
2018-07-13T19:02:47.540Z,26.90
2018-07-13T19:05:16.346Z,23.13
2018-07-13T19:07:45.293Z,23.60
2018-07-13T19:10:14.115Z,23.93
2018-07-13T19:12:42.896Z,29.70
2018-07-13T19:15:11.498Z,23.07
2018-07-13T19:17:40.296Z,23.20
2018-07-13T19:20:09.344Z,23.30
2018-07-13T19:22:38.137Z,23.23
2018-07-13T19:25:06.952Z,22.47
2018-07-13T19:27:35.325Z,23.60
2018-07-13T19:30:04.361Z,22.73
2018-07-13T19:32:33.293Z,23.40
2018-07-13T19:35:02.116Z,24.40
2018-07-13T19:37:31.198Z,22.57
2018-07-13T19:40:00.001Z,23.00
2018-07-13T19:42:28.809Z,23.43
2018-07-13T19:44:57.793Z,22.83
2018-07-13T19:47:26.582Z,22.83
2018-07-13T19:49:55.466Z,22.93
2018-07-13T19:52:24.291Z,22.83
2018-07-13T19:54:53.120Z,25.00
2018-07-13T19:57:22.009Z,23.30
2018-07-13T19:59:50.755Z,24.70
2018-07-13T20:02:19.581Z,24.00
2018-07-13T20:04:48.369Z,23.10
2018-07-13T20:07:17.212Z,24.80
2018-07-13T20:09:46.002Z,25.53
2018-07-13T20:12:14.833Z,25.87
2018-07-13T20:14:44.072Z,25.40
2018-07-13T20:17:12.924Z,24.97
2018-07-13T20:19:41.610Z,24.10
2018-07-13T20:22:10.561Z,26.00
2018-07-13T20:24:39.500Z,24.40
2018-07-13T20:27:08.400Z,24.10
2018-07-13T20:29:37.408Z,25.53
2018-07-13T20:32:06.317Z,25.47
2018-07-13T20:34:35.217Z,24.90
2018-07-13T20:37:04.518Z,24.27
2018-07-13T20:39:33.432Z,23.73
2018-07-13T20:42:02.183Z,25.47
2018-07-13T20:44:31.156Z,24.10
2018-07-13T20:46:59.531Z,24.17
2018-07-13T20:49:28.355Z,23.20
2018-07-13T20:51:57.194Z,24.97
2018-07-13T20:54:26.035Z,25.27
2018-07-13T20:56:54.811Z,24.50
2018-07-13T20:59:23.722Z,24.00
2018-07-13T21:01:52.534Z,24.47
2018-07-13T21:04:21.318Z,26.97
2018-07-13T21:06:50.292Z,25.77
2018-07-13T21:09:19.114Z,25.60
2018-07-13T21:11:47.958Z,23.47
2018-07-13T21:14:16.496Z,23.57
2018-07-13T21:16:45.324Z,24.63
2018-07-13T21:19:14.179Z,23.20
2018-07-13T21:21:42.712Z,24.30
2018-07-13T21:24:11.498Z,25.70
2018-07-13T21:26:39.959Z,26.60
2018-07-13T21:29:08.794Z,26.13
2018-07-13T21:31:38.006Z,25.93
2018-07-13T21:34:06.934Z,23.40
2018-07-13T21:36:35.825Z,27.00
2018-07-13T21:39:04.753Z,25.27
2018-07-13T21:41:33.585Z,27.27
2018-07-13T21:44:02.394Z,24.90
2018-07-13T21:46:31.167Z,21.07
2018-07-13T21:48:59.961Z,26.43
2018-07-13T21:51:28.796Z,21.07
2018-07-13T21:53:57.616Z,19.20
2018-07-13T21:56:26.435Z,18.70
2018-07-13T21:58:55.239Z,23.73
2018-07-13T22:01:24.053Z,21.73
2018-07-13T22:03:52.839Z,21.57
2018-07-13T22:06:21.859Z,18.80
2018-07-13T22:08:50.366Z,18.63
2018-07-13T22:11:19.137Z,19.77
2018-07-13T22:13:47.946Z,17.60
2018-07-13T22:16:16.761Z,19.33
2018-07-13T22:18:45.153Z,19.73
2018-07-13T22:21:14.018Z,28.60
2018-07-13T22:23:42.824Z,24.40
2018-07-13T22:26:11.610Z,24.23
2018-07-13T22:28:40.706Z,19.20
2018-07-13T22:31:09.625Z,17.47
2018-07-13T22:33:38.431Z,20.43
2018-07-13T22:36:07.285Z,16.93
2018-07-13T22:38:36.054Z,17.63
2018-07-13T22:41:04.893Z,21.37
2018-07-13T22:43:33.847Z,14.17
2018-07-13T22:46:02.638Z,14.83
2018-07-13T22:48:31.417Z,15.43
2018-07-13T22:51:00.404Z,13.70
2018-07-13T22:53:29.181Z,16.10
2018-07-13T22:55:58.012Z,13.93
2018-07-13T22:58:26.833Z,12.63
2018-07-13T23:00:55.646Z,13.10
2018-07-13T23:03:24.140Z,11.00
2018-07-13T23:05:53.342Z,12.10
2018-07-13T23:08:22.139Z,18.37
2018-07-13T23:10:50.905Z,14.80
2018-07-13T23:13:19.732Z,16.27
2018-07-13T23:15:48.502Z,12.60
2018-07-13T23:18:17.390Z,10.67
2018-07-13T23:20:46.462Z,12.23
2018-07-13T23:23:15.262Z,10.80
2018-07-13T23:25:44.038Z,11.17
2018-07-13T23:28:12.869Z,11.13
2018-07-13T23:30:41.681Z,10.30
2018-07-13T23:33:10.539Z,11.00
2018-07-13T23:35:39.358Z,12.97
2018-07-13T23:38:08.384Z,10.37
2018-07-13T23:40:36.780Z,8.80
2018-07-13T23:43:06.219Z,9.60
2018-07-13T23:45:35.028Z,9.33
2018-07-13T23:48:03.842Z,9.53
2018-07-13T23:50:32.793Z,9.90
2018-07-13T23:53:01.654Z,9.00
2018-07-13T23:55:30.439Z,8.63
2018-07-13T23:57:59.289Z,8.60
